Time;durP1;ratioP1;P1;durP2;ratioP2;P2;SDS_P1;SDS_P2;PMS_P1;PMS_P2;Temp;Humidity;BMP_temperature;BMP_pressure;BME280_temperature;BME280_humidity;BME280_pressure;Samples;Min_cycle;Max_cycle;Signal;HPM_P1;HPM_P2
2022/10/28 00:00:38;;;;;;;0.30;0.30;;;18.30;99.90;19.30;101442.00;;;;4955099;28;20223;-81
2022/10/28 00:03:18;;;;;;;1.53;0.90;;;18.40;99.90;19.20;101449.00;;;;5028678;28;20673;-81
2022/10/28 00:06:15;;;;;;;0.20;0.20;;;18.40;99.90;19.40;101435.00;;;;5051031;28;20604;-81
2022/10/28 00:09:05;;;;;;;0.40;0.40;;;18.50;99.90;19.50;101432.00;;;;5033460;28;20196;-78
2022/10/28 00:12:00;;;;;;;0.73;0.73;;;18.50;99.90;19.50;101441.00;;;;5050819;28;20244;-78
2022/10/28 00:14:51;;;;;;;0.63;0.63;;;18.50;99.90;19.70;101411.00;;;;5050720;28;20292;-78
2022/10/28 00:17:48;;;;;;;0.57;0.37;;;18.60;99.90;19.40;101455.00;;;;5033060;28;20656;-78
2022/10/28 00:20:38;;;;;;;4.33;0.97;;;18.60;99.90;19.60;101457.00;;;;4974063;28;20260;-78
2022/10/28 00:23:35;;;;;;;0.30;0.30;;;18.70;99.90;19.30;101435.00;;;;4983409;28;20197;-78
2022/10/28 00:26:54;;;;;;;0.30;0.30;;;18.60;99.90;19.50;101453.00;;;;5027767;28;20565;-78
2022/10/28 00:29:52;;;;;;;0.40;0.40;;;18.60;99.90;19.70;101444.00;;;;5033445;28;20209;-78
2022/10/28 00:33:07;;;;;;;0.40;0.40;;;18.60;99.90;19.50;101440.00;;;;5050367;28;20249;-78
2022/10/28 00:35:59;;;;;;;0.95;0.95;;;18.60;99.90;19.40;101431.00;;;;5019746;28;20634;-78
2022/10/28 00:38:43;;;;;;;1.30;1.23;;;18.50;99.90;19.30;101438.00;;;;5050456;28;20210;-78
2022/10/28 00:41:52;;;;;;;0.68;0.43;;;18.50;99.90;19.70;101437.00;;;;5050061;28;20190;-78
2022/10/28 00:44:52;;;;;;;1.33;1.33;;;18.50;99.90;19.60;101430.00;;;;5017032;28;20234;-78
2022/10/28 00:48:13;;;;;;;0.30;0.30;;;18.60;99.90;19.50;101431.00;;;;5034833;28;20186;-78
2022/10/28 00:51:20;;;;;;;0.20;0.20;;;18.60;99.90;19.30;101433.00;;;;4973681;28;20235;-77
2022/10/28 00:54:27;;;;;;;0.30;0.30;;;18.50;99.90;19.40;101418.00;;;;4974067;28;20204;-77
2022/10/28 00:57:27;;;;;;;0.40;0.40;;;18.50;99.90;19.30;101416.00;;;;4956829;28;20195;-79
2022/10/28 01:00:34;;;;;;;0.57;0.40;;;18.50;99.90;19.50;101426.00;;;;5033422;28;20241;-80
2022/10/28 01:03:46;;;;;;;0.40;0.40;;;18.40;99.90;19.50;101427.00;;;;5032031;28;20198;-79
2022/10/28 01:06:57;;;;;;;0.20;0.20;;;18.60;99.90;19.20;101427.00;;;;4938697;29;20196;-79
2022/10/28 01:10:09;;;;;;;0.83;0.40;;;18.50;99.90;19.60;101416.00;;;;4938515;29;20555;-79
2022/10/28 01:13:37;;;;;;;0.97;0.97;;;18.50;99.90;19.30;101427.00;;;;4937923;29;20331;-79
2022/10/28 01:16:45;;;;;;;0.20;0.20;;;18.50;99.90;19.30;101435.00;;;;4951875;29;20196;-78
2022/10/28 01:19:38;;;;;;;0.77;0.70;;;18.50;99.90;19.30;101428.00;;;;4953832;29;20185;-78
2022/10/28 01:23:00;;;;;;;0.40;0.40;;;18.50;99.90;19.30;101419.00;;;;4937423;29;20206;-77
2022/10/28 01:26:00;;;;;;;0.20;0.20;;;18.40;99.90;19.40;101415.00;;;;4937332;29;20195;-78
2022/10/28 01:29:15;;;;;;;0.20;0.20;;;18.40;99.90;19.40;101409.00;;;;4937280;29;20243;-78
2022/10/28 01:32:42;;;;;;;2.10;2.00;;;18.50;99.90;19.30;101416.00;;;;4953400;28;20231;-77
2022/10/28 01:35:43;;;;;;;0.40;0.40;;;18.40;99.90;19.20;101426.00;;;;4937640;29;20256;-77
2022/10/28 01:38:48;;;;;;;0.20;0.20;;;18.30;99.90;19.20;101367.00;;;;4992384;28;20725;-77
2022/10/28 01:41:52;;;;;;;0.27;0.27;;;18.30;99.90;19.10;101403.00;;;;4992252;28;20551;-77
2022/10/28 01:48:52;;;;;;;1.17;0.90;;;18.30;99.90;19.10;101408.00;;;;4914518;29;20201;-78
2022/10/28 01:51:47;;;;;;;1.27;1.23;;;18.20;99.90;19.40;101406.00;;;;4955906;28;20295;-77
2022/10/28 01:54:37;;;;;;;0.27;0.27;;;18.30;99.90;19.30;101414.00;;;;5032188;28;20178;-78
2022/10/28 01:57:18;;;;;;;3.20;0.70;;;18.30;99.90;19.30;101409.00;;;;5031909;28;20194;-78
2022/10/28 02:00:28;;;;;;;0.20;0.20;;;18.20;99.90;19.00;101412.00;;;;5032884;28;20182;-78
2022/10/28 02:03:40;;;;;;;1.17;1.17;;;18.20;99.90;18.90;101404.00;;;;5032337;28;20200;-77
2022/10/28 02:06:35;;;;;;;0.53;0.53;;;18.20;99.90;18.80;101352.00;;;;5032934;28;20190;-78
2022/10/28 02:09:34;;;;;;;0.20;0.20;;;18.10;99.90;19.20;101407.00;;;;5017770;28;20248;-78
2022/10/28 02:12:10;;;;;;;0.43;0.40;;;18.10;99.90;19.10;101377.00;;;;5048708;28;20214;-78
2022/10/28 02:15:28;;;;;;;1.83;0.67;;;18.10;99.90;19.00;101421.00;;;;5048827;28;20290;-78
2022/10/28 02:18:17;;;;;;;0.20;0.20;;;18.10;99.90;19.20;101414.00;;;;5048584;28;20642;-79
2022/10/28 02:21:43;;;;;;;0.23;0.23;;;18.10;99.90;18.90;101424.00;;;;5033425;28;20178;-79
2022/10/28 02:25:00;;;;;;;0.20;0.20;;;18.00;99.90;19.00;101276.00;;;;5031071;28;20198;-80
2022/10/28 02:28:26;;;;;;;0.20;0.20;;;18.00;99.90;19.00;101420.00;;;;5048868;28;20189;-79
2022/10/28 02:31:24;;;;;;;0.20;0.20;;;17.90;99.90;19.20;101392.00;;;;5032004;28;20192;-78
2022/10/28 02:34:19;;;;;;;0.20;0.20;;;18.00;99.90;19.10;101405.00;;;;5032756;28;20217;-78
2022/10/28 02:37:23;;;;;;;0.20;0.20;;;18.00;99.90;19.00;101411.00;;;;5031831;28;20197;-78
2022/10/28 02:40:04;;;;;;;0.80;0.80;;;17.90;99.90;18.90;101412.00;;;;5031652;28;20216;-78
2022/10/28 02:43:13;;;;;;;0.20;0.20;;;17.90;99.90;18.80;101417.00;;;;5048560;28;20185;-78
2022/10/28 02:46:25;;;;;;;5.20;3.50;;;17.80;99.90;18.50;101420.00;;;;5031556;28;20197;-78
2022/10/28 02:49:52;;;;;;;0.20;0.20;;;17.70;99.90;18.70;101411.00;;;;5047573;28;20642;-78
2022/10/28 02:52:45;;;;;;;0.20;0.20;;;17.70;99.90;18.90;101385.00;;;;5047586;28;20205;-77
2022/10/28 02:55:36;;;;;;;0.20;0.20;;;17.80;99.90;18.60;101395.00;;;;5030468;28;20195;-77
2022/10/28 02:58:44;;;;;;;0.30;0.30;;;17.70;99.90;18.40;101371.00;;;;4983680;28;20189;-79
2022/10/28 03:02:06;;;;;;;0.20;0.20;;;17.70;99.90;18.80;101397.00;;;;5031732;28;20539;-78
2022/10/28 03:05:14;;;;;;;0.40;0.40;;;17.60;99.90;19.00;101402.00;;;;5047912;28;20560;-79
2022/10/28 03:08:05;;;;;;;1.00;0.80;;;17.80;99.90;18.80;101369.00;;;;5014737;28;20702;-78
2022/10/28 03:11:03;;;;;;;0.37;0.37;;;17.80;99.90;18.70;101389.00;;;;5048126;28;20208;-78
2022/10/28 03:14:02;;;;;;;0.20;0.20;;;17.80;99.90;18.50;101389.00;;;;5016854;28;20553;-80
2022/10/28 03:16:47;;;;;;;0.53;0.53;;;17.70;99.90;18.50;101398.00;;;;5032403;28;20198;-78
2022/10/28 03:19:38;;;;;;;0.53;0.53;;;17.70;99.90;18.50;101385.00;;;;5031398;28;20184;-79
2022/10/28 03:22:36;;;;;;;0.20;0.20;;;17.60;99.90;18.40;101400.00;;;;4996385;28;20199;-79
2022/10/28 03:25:45;;;;;;;0.20;0.20;;;17.60;99.90;18.50;101390.00;;;;5013072;28;20198;-77
2022/10/28 03:28:54;;;;;;;0.20;0.20;;;17.60;99.90;18.60;101387.00;;;;5015555;28;20196;-79
2022/10/28 03:31:48;;;;;;;2.47;1.10;;;17.60;99.90;18.30;101371.00;;;;5014757;28;20221;-78
2022/10/28 03:34:40;;;;;;;0.27;0.27;;;17.50;99.90;18.40;101382.00;;;;5030892;28;20174;-78
2022/10/28 03:37:35;;;;;;;0.47;0.47;;;17.50;99.90;18.20;101369.00;;;;5015185;28;20187;-81
2022/10/28 03:40:31;;;;;;;0.37;0.33;;;17.50;99.90;18.40;101365.00;;;;5015294;28;20339;-80
2022/10/28 03:43:20;;;;;;;0.47;0.47;;;17.60;99.90;18.40;101367.00;;;;5012969;28;20292;-81
2022/10/28 03:46:09;;;;;;;1.30;0.77;;;17.60;99.90;18.40;101337.00;;;;5014845;28;20190;-80
2022/10/28 03:49:18;;;;;;;2.13;1.43;;;17.60;99.90;18.30;101388.00;;;;5014805;28;20199;-80
2022/10/28 03:52:09;;;;;;;1.07;0.97;;;17.60;99.90;18.30;101360.00;;;;5014277;28;20214;-80
2022/10/28 03:55:02;;;;;;;0.40;0.40;;;17.60;99.90;18.40;101371.00;;;;5031403;28;20194;-80
2022/10/28 03:58:01;;;;;;;0.30;0.30;;;17.60;99.90;18.40;101378.00;;;;5030542;28;20182;-82
2022/10/28 04:01:07;;;;;;;0.20;0.20;;;17.60;99.90;18.20;101379.00;;;;4996849;28;20662;-81
2022/10/28 04:03:39;;;;;;;0.63;0.63;;;17.50;99.90;18.40;101351.00;;;;5013434;28;20213;-81
2022/10/28 04:06:10;;;;;;;0.20;0.20;;;17.60;99.90;18.30;101362.00;;;;5030966;28;20618;-81
2022/10/28 04:08:41;;;;;;;0.30;0.30;;;17.50;99.90;18.30;101370.00;;;;5016045;28;20287;-80
2022/10/28 04:11:07;;;;;;;0.20;0.20;;;17.50;99.90;18.40;101328.00;;;;5014549;28;20197;-79
2022/10/28 04:13:33;;;;;;;1.07;0.80;;;17.50;99.90;18.30;101378.00;;;;5031270;28;20189;-78
2022/10/28 04:16:05;;;;;;;0.43;0.43;;;17.50;99.90;18.40;101373.00;;;;5030948;28;20201;-78
2022/10/28 04:18:37;;;;;;;0.27;0.27;;;17.50;99.90;18.50;101374.00;;;;5014441;28;20189;-79
2022/10/28 04:21:08;;;;;;;0.40;0.40;;;17.50;99.90;18.30;101352.00;;;;5044321;28;20661;-79
2022/10/28 04:23:39;;;;;;;0.43;0.43;;;17.50;99.90;18.30;101360.00;;;;5050657;28;20648;-79
2022/10/28 04:26:14;;;;;;;2.07;1.13;;;17.40;99.90;18.40;101370.00;;;;5034990;28;20207;-80
2022/10/28 04:28:45;;;;;;;0.20;0.20;;;17.40;99.90;18.10;101360.00;;;;5034101;28;20259;-79
2022/10/28 04:31:11;;;;;;;0.27;0.27;;;17.40;99.90;18.20;101376.00;;;;5033481;28;20637;-79
2022/10/28 04:33:42;;;;;;;1.33;1.33;;;17.40;99.90;18.00;101380.00;;;;5035416;28;20228;-79
2022/10/28 04:36:14;;;;;;;0.20;0.20;;;17.30;99.90;18.10;101363.00;;;;5033873;28;20185;-78
2022/10/28 04:38:45;;;;;;;5.70;2.07;;;17.40;99.90;18.00;101368.00;;;;5033831;28;20185;-76
2022/10/28 04:41:16;;;;;;;0.27;0.27;;;17.40;99.90;18.20;101376.00;;;;5035043;28;20626;-77
2022/10/28 04:43:43;;;;;;;2.30;1.53;;;17.40;99.90;18.10;101368.00;;;;5017048;28;20189;-77
2022/10/28 04:46:16;;;;;;;0.57;0.57;;;17.40;99.90;18.20;101374.00;;;;5033832;28;20187;-77
2022/10/28 04:48:42;;;;;;;0.70;0.70;;;17.40;99.90;18.20;101348.00;;;;5034694;28;20182;-77
2022/10/28 04:51:19;;;;;;;0.20;0.20;;;17.40;99.90;18.10;101345.00;;;;5033469;28;20238;-75
2022/10/28 04:53:45;;;;;;;0.50;0.50;;;17.40;99.90;18.10;101379.00;;;;5034021;28;20266;-75
2022/10/28 04:56:11;;;;;;;0.20;0.20;;;17.30;99.90;18.40;101375.00;;;;5034245;28;20666;-75
2022/10/28 04:58:57;;;;;;;0.30;0.30;;;17.40;99.90;18.40;101385.00;;;;5033621;28;20284;-75
2022/10/28 05:01:38;;;;;;;0.93;0.93;;;17.40;99.90;18.30;101342.00;;;;5033447;28;20189;-75
2022/10/28 05:04:12;;;;;;;0.20;0.20;;;17.40;99.90;18.10;101368.00;;;;5017252;28;20518;-75
2022/10/28 05:06:41;;;;;;;0.20;0.20;;;17.30;99.90;18.10;101378.00;;;;5017184;28;20190;-75
2022/10/28 05:09:07;;;;;;;0.20;0.20;;;17.30;99.90;18.20;101369.00;;;;5017227;28;20230;-75
2022/10/28 05:11:39;;;;;;;0.20;0.20;;;17.30;99.90;18.10;101349.00;;;;5016654;28;20205;-78
2022/10/28 05:14:10;;;;;;;0.50;0.50;;;17.30;99.90;18.20;101374.00;;;;5016985;28;20184;-77
2022/10/28 05:16:41;;;;;;;0.30;0.30;;;17.30;99.90;18.10;101371.00;;;;5033323;28;20211;-76
2022/10/28 05:19:10;;;;;;;0.20;0.20;;;17.30;99.90;18.20;101347.00;;;;5032682;28;20196;-77
2022/10/28 05:21:43;;;;;;;1.80;0.70;;;17.30;99.90;18.10;101304.00;;;;5034043;28;20172;-77
2022/10/28 05:24:15;;;;;;;0.90;0.90;;;17.30;99.90;18.10;101372.00;;;;5016468;28;20185;-78
2022/10/28 05:26:46;;;;;;;0.33;0.33;;;17.30;99.90;18.00;101361.00;;;;5033173;28;20179;-77
2022/10/28 05:29:18;;;;;;;0.50;0.50;;;17.30;99.90;18.10;101318.00;;;;5032802;28;20170;-78
2022/10/28 05:31:49;;;;;;;0.60;0.40;;;17.30;99.90;18.00;101369.00;;;;5033853;28;20213;-77
2022/10/28 05:34:15;;;;;;;0.60;0.60;;;17.30;99.90;18.20;101370.00;;;;5032949;28;20629;-77
2022/10/28 05:36:46;;;;;;;1.90;1.30;;;17.30;99.90;18.20;101369.00;;;;5032934;28;20222;-77
2022/10/28 05:39:12;;;;;;;0.30;0.30;;;17.40;99.90;18.10;101336.00;;;;5032839;28;20186;-79
2022/10/28 05:41:43;;;;;;;0.20;0.20;;;17.30;99.90;18.40;101311.00;;;;5032248;28;20842;-77
2022/10/28 05:44:15;;;;;;;0.60;0.60;;;17.40;99.90;18.10;101335.00;;;;5034227;28;20223;-77
2022/10/28 05:46:46;;;;;;;0.20;0.20;;;17.30;99.90;18.10;101339.00;;;;5015940;28;20189;-77
2022/10/28 05:49:12;;;;;;;0.27;0.27;;;17.30;99.90;18.10;101342.00;;;;5032121;28;20640;-76
2022/10/28 05:51:43;;;;;;;0.30;0.30;;;17.20;99.90;18.20;101337.00;;;;5032399;28;20269;-76
2022/10/28 05:54:17;;;;;;;0.37;0.30;;;17.30;99.90;18.10;101328.00;;;;5032277;28;20692;-77
2022/10/28 05:56:43;;;;;;;0.20;0.20;;;17.30;99.90;18.10;101306.00;;;;5015480;28;20180;-77
2022/10/28 05:59:14;;;;;;;0.30;0.30;;;17.30;99.90;18.20;101329.00;;;;5032516;28;20271;-77
2022/10/28 06:01:51;;;;;;;0.20;0.20;;;17.30;99.90;18.20;101331.00;;;;5015861;28;20191;-77
2022/10/28 06:04:28;;;;;;;0.63;0.63;;;17.30;99.90;18.10;101341.00;;;;5015628;28;20210;-76
2022/10/28 06:07:02;;;;;;;2.47;2.40;;;17.30;99.90;17.90;101332.00;;;;5032281;28;20417;-76
2022/10/28 06:09:33;;;;;;;0.20;0.20;;;17.30;99.90;18.20;101338.00;;;;5015821;28;20189;-76
2022/10/28 06:11:59;;;;;;;0.30;0.30;;;17.30;99.90;18.10;101317.00;;;;5033310;28;20203;-76
2022/10/28 06:14:33;;;;;;;0.20;0.20;;;17.30;99.90;18.20;101289.00;;;;5032322;28;20598;-76
2022/10/28 06:17:08;;;;;;;0.30;0.30;;;17.30;99.90;18.20;101315.00;;;;5015608;28;20190;-77
2022/10/28 06:19:42;;;;;;;0.17;0.17;;;17.30;99.90;18.30;101335.00;;;;5033634;28;20180;-77
2022/10/28 06:22:13;;;;;;;0.20;0.20;;;17.30;99.90;18.20;101318.00;;;;5032522;28;20523;-76
2022/10/28 06:24:45;;;;;;;0.20;0.20;;;17.30;99.90;18.10;101317.00;;;;5015518;28;20334;-77
2022/10/28 06:27:16;;;;;;;0.27;0.27;;;17.30;99.90;18.50;101328.00;;;;5032021;28;20226;-77
2022/10/28 06:29:42;;;;;;;0.50;0.50;;;17.30;99.90;18.50;101338.00;;;;5025110;28;20275;-76
2022/10/28 06:32:14;;;;;;;0.20;0.20;;;17.40;99.90;18.20;101335.00;;;;4995456;28;20261;-77
2022/10/28 06:34:48;;;;;;;0.40;0.40;;;17.40;99.90;18.30;101295.00;;;;4996332;28;20329;-76
2022/10/28 06:37:14;;;;;;;0.20;0.20;;;17.40;99.90;18.10;101366.00;;;;5013304;28;20626;-77
2022/10/28 06:39:50;;;;;;;0.50;0.50;;;17.30;99.90;18.30;101341.00;;;;4996031;28;20201;-77
2022/10/28 06:42:19;;;;;;;0.30;0.30;;;17.30;99.90;18.30;101355.00;;;;5013705;28;20608;-77
2022/10/28 06:44:45;;;;;;;0.20;0.20;;;17.30;99.90;18.20;101339.00;;;;5012657;28;20162;-79
2022/10/28 06:47:11;;;;;;;1.07;1.07;;;17.40;99.90;18.10;101347.00;;;;5012233;28;20541;-79
2022/10/28 06:49:39;;;;;;;0.67;0.67;;;17.40;99.90;18.30;101345.00;;;;5012004;28;20193;-79
2022/10/28 06:52:05;;;;;;;0.57;0.57;;;17.40;99.90;18.20;101330.00;;;;4995916;28;20240;-80
2022/10/28 06:54:31;;;;;;;0.37;0.37;;;17.50;99.90;18.50;101293.00;;;;5014978;28;20630;-80
2022/10/28 06:56:57;;;;;;;2.17;1.60;;;17.60;99.90;18.60;101323.00;;;;5016058;28;20182;-79
2022/10/28 06:59:22;;;;;;;2.60;2.40;;;17.60;99.90;18.50;101331.00;;;;5015950;28;20551;-79
2022/10/28 07:01:51;;;;;;;0.53;0.53;;;17.60;99.90;18.60;101345.00;;;;5015713;28;20231;-78
2022/10/28 07:04:17;;;;;;;0.30;0.30;;;17.70;99.90;18.80;101343.00;;;;4999791;28;20189;-78
2022/10/28 07:06:43;;;;;;;0.20;0.20;;;17.70;99.90;18.60;101313.00;;;;5015646;28;20209;-78
2022/10/28 07:09:15;;;;;;;0.33;0.27;;;17.70;99.90;18.70;101294.00;;;;5016847;28;20174;-78
2022/10/28 07:11:48;;;;;;;0.20;0.20;;;17.80;99.90;18.80;101341.00;;;;4999372;28;20250;-77
2022/10/28 07:14:20;;;;;;;0.40;0.40;;;17.80;99.90;18.60;101334.00;;;;4999415;28;20601;-77
2022/10/28 07:16:45;;;;;;;0.20;0.20;;;17.80;99.90;18.80;101342.00;;;;5015466;28;20192;-75
2022/10/28 07:19:11;;;;;;;0.50;0.50;;;17.80;99.90;19.10;101355.00;;;;5015620;28;20167;-81
2022/10/28 07:22:03;;;;;;;0.47;0.47;;;18.00;99.90;18.70;101357.00;;;;4999221;28;20274;-81
2022/10/28 07:24:32;;;;;;;0.63;0.63;;;17.90;99.90;19.00;101386.00;;;;5057042;28;20267;-81
2022/10/28 07:26:58;;;;;;;1.53;1.53;;;18.10;99.90;19.20;101326.00;;;;5036403;28;20616;-81
2022/10/28 07:29:28;;;;;;;0.53;0.53;;;18.20;99.90;19.20;101385.00;;;;5036068;28;20174;-81
2022/10/28 07:31:54;;;;;;;0.20;0.20;;;18.20;99.90;19.10;101344.00;;;;5028671;28;20223;-81
2022/10/28 07:34:28;;;;;;;0.20;0.20;;;18.20;99.90;19.10;101375.00;;;;5015112;28;20194;-80
2022/10/28 07:36:55;;;;;;;0.30;0.30;;;18.20;99.90;19.20;101389.00;;;;5015173;28;20178;-81
2022/10/28 07:39:24;;;;;;;0.17;0.17;;;18.30;99.90;19.50;101378.00;;;;5015531;28;20183;-81
2022/10/28 07:41:49;;;;;;;0.20;0.20;;;18.40;99.90;19.60;101373.00;;;;5015196;28;20191;-80
2022/10/28 07:44:15;;;;;;;0.10;0.10;;;18.40;99.90;19.20;101316.00;;;;5031457;28;20244;-81
2022/10/28 07:46:47;;;;;;;0.20;0.20;;;18.40;99.90;19.60;101384.00;;;;5029264;28;20225;-80
2022/10/28 07:49:16;;;;;;;0.60;0.60;;;18.40;99.90;19.10;101370.00;;;;5018417;28;20187;-81
2022/10/28 07:51:48;;;;;;;5.88;3.47;;;18.40;99.90;19.30;101379.00;;;;5018601;28;20210;-81
2022/10/28 07:54:25;;;;;;;0.30;0.30;;;18.40;99.90;19.10;101328.00;;;;5016750;28;20201;-81
2022/10/28 07:57:20;;;;;;;1.65;0.45;;;18.40;99.90;19.40;101379.00;;;;5047577;28;20186;-80
2022/10/28 07:59:55;;;;;;;0.40;0.40;;;18.40;99.90;19.40;101376.00;;;;5021036;28;20195;-81
2022/10/28 08:02:23;;;;;;;0.40;0.40;;;18.50;99.90;19.40;101397.00;;;;5034608;28;20182;-81
2022/10/28 08:04:49;;;;;;;0.45;0.45;;;18.60;99.90;19.70;101389.00;;;;5017071;28;20719;-81
2022/10/28 08:07:19;;;;;;;0.20;0.20;;;18.70;99.90;19.80;101378.00;;;;5013155;28;20186;-81
2022/10/28 08:09:45;;;;;;;1.15;1.15;;;18.80;99.90;20.00;101408.00;;;;5062066;28;20724;-80
2022/10/28 08:12:18;;;;;;;0.20;0.20;;;18.90;99.90;19.90;101399.00;;;;5032333;28;20238;-75
2022/10/28 08:14:55;;;;;;;0.45;0.45;;;18.90;99.90;20.30;101414.00;;;;5017852;28;20193;-74
2022/10/28 08:17:21;;;;;;;1.15;1.15;;;19.00;99.90;20.10;101409.00;;;;5033395;28;20178;-74
2022/10/28 08:19:47;;;;;;;0.35;0.35;;;19.10;99.90;20.00;101413.00;;;;5022646;28;20218;-75
2022/10/28 08:22:21;;;;;;;2.33;1.17;;;19.10;99.90;20.20;101389.00;;;;5050964;28;20214;-74
2022/10/28 08:24:53;;;;;;;4.18;0.38;;;19.20;99.90;19.80;101405.00;;;;5034559;28;20253;-74
2022/10/28 08:27:18;;;;;;;0.50;0.50;;;19.10;99.90;20.00;101410.00;;;;5017107;28;20175;-74
2022/10/28 08:29:47;;;;;;;0.70;0.70;;;19.10;99.90;19.80;101404.00;;;;5023534;28;20273;-78
2022/10/28 08:32:50;;;;;;;1.55;1.05;;;19.20;99.90;20.50;101344.00;;;;5044352;28;20310;-80
2022/10/28 08:35:39;;;;;;;1.65;0.82;;;19.30;99.90;20.40;101397.00;;;;5012130;28;20689;-80
2022/10/28 08:38:31;;;;;;;0.20;0.20;;;19.50;99.90;20.80;101415.00;;;;4996515;28;20199;-80
2022/10/28 08:41:15;;;;;;;0.90;0.90;;;19.60;99.90;20.70;101425.00;;;;5012282;28;20671;-79
2022/10/28 08:47:59;;;;;;;1.40;1.05;;;19.90;99.90;21.00;101427.00;;;;5012517;28;20194;-79
2022/10/28 08:54:15;;;;;;;1.15;1.15;;;20.10;99.90;21.90;101442.00;;;;5038926;28;20658;-79
2022/10/28 08:56:48;;;;;;;0.60;0.60;;;20.60;99.90;21.90;101455.00;;;;5033302;28;20179;-80
2022/10/28 09:00:02;;;;;;;1.15;1.15;;;20.80;99.90;22.20;101453.00;;;;5033474;28;20175;-79
2022/10/28 09:02:45;;;;;;;2.50;1.15;;;21.10;99.90;22.30;101421.00;;;;5016358;28;20205;-79
2022/10/28 09:05:21;;;;;;;0.20;0.20;;;21.10;99.90;22.10;101461.00;;;;5032379;28;20179;-79
2022/10/28 09:07:51;;;;;;;0.45;0.45;;;21.20;99.90;22.90;101469.00;;;;5016610;28;20551;-78
2022/10/28 09:10:49;;;;;;;0.32;0.30;;;21.50;99.90;22.60;101474.00;;;;5015774;28;20241;-78
2022/10/28 09:14:07;;;;;;;1.75;1.75;;;21.50;99.90;23.20;101472.00;;;;5033564;28;20325;-78
2022/10/28 09:16:55;;;;;;;1.25;1.05;;;21.60;99.90;23.20;101473.00;;;;5033175;28;20295;-78
2022/10/28 09:19:26;;;;;;;1.17;1.00;;;21.90;99.90;23.00;101493.00;;;;5033178;28;20187;-77
2022/10/28 09:22:35;;;;;;;1.40;1.30;;;22.00;99.90;22.70;101457.00;;;;5034224;28;20274;-77
2022/10/28 09:25:27;;;;;;;0.10;0.10;;;21.70;99.90;23.70;101462.00;;;;5034070;28;20209;-78
2022/10/28 09:28:11;;;;;;;0.40;0.40;;;22.10;99.90;23.50;101521.00;;;;5029382;28;20638;-77
2022/10/28 09:31:03;;;;;;;0.68;0.68;;;22.40;99.90;22.60;101505.00;;;;5019575;28;20187;-73
2022/10/28 09:33:49;;;;;;;1.35;1.15;;;22.00;99.90;23.60;101518.00;;;;5060101;28;20224;-73
2022/10/28 09:36:50;;;;;;;0.40;0.40;;;22.10;99.90;23.20;101513.00;;;;5024791;28;20205;-73
2022/10/28 09:39:31;;;;;;;0.32;0.32;;;22.00;99.90;22.70;101512.00;;;;5032533;28;20202;-73
2022/10/28 09:42:46;;;;;;;2.22;1.83;;;22.00;99.90;22.70;101501.00;;;;5015831;28;20704;-73
2022/10/28 09:45:31;;;;;;;12.50;1.75;;;21.70;99.90;22.70;101494.00;;;;5030222;28;20206;-74
2022/10/28 09:48:07;;;;;;;0.10;0.10;;;21.80;99.90;23.00;101467.00;;;;5030767;28;20209;-76
2022/10/28 09:50:39;;;;;;;0.10;0.10;;;22.00;99.90;24.00;101505.00;;;;5047743;28;20278;-76
2022/10/28 09:53:20;;;;;;;0.10;0.10;;;22.30;99.90;24.00;101509.00;;;;5031571;28;20669;-76
2022/10/28 09:55:58;;;;;;;0.25;0.25;;;22.50;99.90;24.00;101504.00;;;;5048530;28;20228;-76
2022/10/28 09:58:27;;;;;;;1.42;1.08;;;22.70;99.90;24.10;101521.00;;;;5031914;28;20634;-76
2022/10/28 10:00:56;;;;;;;0.90;0.90;;;22.80;99.90;23.00;101497.00;;;;5031976;28;20186;-75
2022/10/28 10:03:40;;;;;;;2.05;0.93;;;22.30;99.90;24.20;101517.00;;;;5015298;28;20217;-75
2022/10/28 10:06:37;;;;;;;0.10;0.10;;;22.60;99.90;24.60;101508.00;;;;5032991;28;20182;-76
2022/10/28 10:09:26;;;;;;;0.47;0.40;;;23.20;99.90;24.70;101503.00;;;;5030253;28;20190;-77
2022/10/28 10:12:12;;;;;;;0.30;0.30;;;23.50;99.90;24.70;101521.00;;;;5015812;28;20730;-76
2022/10/28 10:14:49;;;;;;;0.47;0.47;;;23.40;99.90;23.50;101523.00;;;;5015442;28;20179;-75
2022/10/28 10:17:39;;;;;;;0.20;0.20;;;22.80;99.90;23.50;101533.00;;;;5015777;28;20265;-76
2022/10/28 10:20:14;;;;;;;0.10;0.10;;;22.60;99.90;24.60;101543.00;;;;5032145;28;20281;-77
2022/10/28 10:33:35;;;;;;;0.10;0.10;;;21.80;99.90;23.10;101537.00;;;;5111299;27;21063;-74
2022/10/28 10:36:15;;;;;;;1.17;1.08;;;22.00;99.90;23.70;101554.00;;;;5106213;28;20191;-70
2022/10/28 10:38:53;;;;;;;0.77;0.77;;;22.20;99.90;24.00;101532.00;;;;5106039;28;20184;-74
2022/10/28 10:41:41;;;;;;;1.38;0.88;;;22.50;99.90;24.60;101554.00;;;;5089106;28;20180;-74
2022/10/28 10:44:51;;;;;;;0.40;0.40;;;22.60;99.90;24.90;101561.00;;;;5089231;28;20181;-74
2022/10/28 10:47:37;;;;;;;0.25;0.25;;;23.00;99.90;25.20;101560.00;;;;5089055;28;20185;-74
2022/10/28 10:50:28;;;;;;;0.40;0.40;;;23.20;99.90;24.10;101583.00;;;;5070795;28;20655;-73
2022/10/28 10:53:00;;;;;;;0.75;0.75;;;23.10;99.90;23.10;101571.00;;;;5084728;28;20217;-76
2022/10/28 10:56:41;;;;;;;0.25;0.25;;;22.50;99.90;23.70;101580.00;;;;5068561;28;20184;-76
2022/10/28 10:59:39;;;;;;;0.20;0.20;;;22.40;99.90;24.20;101599.00;;;;5096990;28;20215;-77
2022/10/28 11:02:53;;;;;;;0.22;0.22;;;22.60;99.90;24.40;101579.00;;;;5098645;28;20200;-76
2022/10/28 11:05:52;;;;;;;8.35;0.93;;;22.80;99.90;23.50;101560.00;;;;5089888;28;20205;-76
2022/10/28 11:09:02;;;;;;;0.80;0.80;;;22.50;99.90;23.70;101564.00;;;;5083198;28;20199;-76
2022/10/28 11:12:23;;;;;;;0.50;0.50;;;22.10;99.90;23.70;101586.00;;;;5044416;28;20224;-77
2022/10/28 11:15:28;;;;;;;0.20;0.20;;;22.70;99.90;24.30;101565.00;;;;5105631;28;20192;-77
2022/10/28 11:19:06;;;;;;;1.35;1.25;;;22.90;99.90;23.40;101579.00;;;;5089397;28;20169;-77
2022/10/28 11:22:02;;;;;;;4.43;1.65;;;22.60;99.90;23.00;101558.00;;;;5084592;28;20196;-77
2022/10/28 11:25:10;;;;;;;0.40;0.40;;;22.30;99.90;23.80;101581.00;;;;5064437;28;20186;-77
2022/10/28 11:28:05;;;;;;;0.20;0.20;;;22.20;99.90;23.40;101584.00;;;;5069592;28;20177;-77
2022/10/28 11:31:31;;;;;;;0.20;0.20;;;22.10;99.90;24.30;101596.00;;;;5069742;28;20178;-77
2022/10/28 11:34:18;;;;;;;0.65;0.65;;;22.60;99.90;24.00;101593.00;;;;5069322;28;20213;-77
2022/10/28 11:37:14;;;;;;;3.22;1.83;;;22.70;99.90;23.10;101578.00;;;;5084784;28;20189;-76
2022/10/28 11:40:15;;;;;;;0.30;0.30;;;22.10;99.90;23.50;101582.00;;;;5069342;28;20177;-76
2022/10/28 11:43:17;;;;;;;0.20;0.20;;;22.30;99.90;23.70;101588.00;;;;5067973;28;20185;-77
2022/10/28 11:46:20;;;;;;;0.20;0.20;;;22.30;99.90;24.00;101597.00;;;;5055794;28;20174;-76
2022/10/28 11:49:31;;;;;;;0.43;0.30;;;22.30;99.90;23.20;101585.00;;;;5055945;28;20183;-76
2022/10/28 11:52:09;;;;;;;3.63;2.08;;;22.10;99.90;23.80;101603.00;;;;5071171;28;20206;-77
2022/10/28 11:55:13;;;;;;;0.43;0.40;;;22.30;99.90;22.80;101596.00;;;;5055945;28;20178;-76
2022/10/28 11:58:16;;;;;;;0.20;0.20;;;22.00;99.90;23.90;101600.00;;;;5043693;28;20194;-76
2022/10/28 12:00:54;;;;;;;0.55;0.55;;;22.20;99.90;23.00;101604.00;;;;5073075;28;20182;-76
2022/10/28 12:03:53;;;;;;;0.35;0.35;;;22.10;99.90;22.90;101594.00;;;;5074938;28;20197;-75
2022/10/28 12:06:52;;;;;;;3.20;1.52;;;21.90;99.90;22.80;101588.00;;;;5074084;28;20283;-77
2022/10/28 12:10:15;;;;;;;7.43;0.60;;;22.00;99.90;22.90;101594.00;;;;5074203;28;20543;-76
2022/10/28 12:13:03;;;;;;;0.60;0.60;;;22.00;99.90;23.10;101622.00;;;;5074293;28;20209;-75
2022/10/28 12:16:06;;;;;;;0.98;0.98;;;22.10;99.90;23.60;101597.00;;;;5090936;28;20192;-73
2022/10/28 12:18:42;;;;;;;0.20;0.20;;;22.20;99.90;23.80;101603.00;;;;5075663;28;20204;-73
2022/10/28 12:21:30;;;;;;;0.20;0.20;;;22.20;99.90;24.20;101607.00;;;;5090580;28;20192;-74
2022/10/28 12:24:05;;;;;;;2.20;1.30;;;22.50;99.90;23.20;101593.00;;;;5057090;28;20648;-75
2022/10/28 12:27:15;;;;;;;0.20;0.20;;;22.50;99.90;23.10;101569.00;;;;5074190;28;20181;-73
2022/10/28 12:30:22;;;;;;;0.50;0.50;;;22.10;99.90;23.30;101601.00;;;;5056818;28;20583;-74
2022/10/28 12:33:19;;;;;;;0.22;0.22;;;22.10;99.90;24.00;101619.00;;;;5073797;28;20204;-72